createdAt,value
2018-04-25T00:00:48.159Z,99.90
2018-04-25T00:03:16.394Z,99.90
2018-04-25T00:05:44.703Z,99.90
2018-04-25T00:08:13.679Z,99.90
2018-04-25T00:10:42.658Z,99.90
2018-04-25T00:13:10.936Z,99.90
2018-04-25T00:15:40.390Z,99.90
2018-04-25T00:18:08.604Z,99.90
2018-04-25T00:20:36.823Z,99.90
2018-04-25T00:23:05.023Z,99.90
2018-04-25T00:25:33.267Z,99.90
2018-04-25T00:28:02.497Z,99.90
2018-04-25T00:30:30.726Z,99.90
2018-04-25T00:32:58.999Z,99.90
2018-04-25T00:35:27.231Z,99.90
2018-04-25T00:37:55.438Z,99.90
2018-04-25T00:40:23.677Z,99.90
2018-04-25T00:42:51.920Z,99.90
2018-04-25T00:45:20.189Z,99.90
2018-04-25T00:47:48.405Z,99.90
2018-04-25T00:50:16.655Z,99.90
2018-04-25T00:52:45.632Z,99.90
2018-04-25T00:55:14.874Z,99.90
2018-04-25T00:57:43.140Z,99.90
2018-04-25T01:00:11.371Z,99.90
2018-04-25T01:02:39.579Z,99.90
2018-04-25T01:05:08.589Z,99.90
2018-04-25T01:07:37.529Z,99.90
2018-04-25T01:10:05.720Z,99.90
2018-04-25T01:12:34.056Z,99.90
2018-04-25T01:15:02.257Z,99.90
2018-04-25T01:17:30.487Z,99.90
2018-04-25T01:19:58.715Z,99.90
2018-04-25T01:22:26.968Z,99.90
2018-04-25T01:24:56.878Z,99.90
2018-04-25T01:27:25.298Z,99.90
2018-04-25T01:29:55.191Z,99.90
2018-04-25T01:32:23.391Z,99.90
2018-04-25T01:34:56.146Z,99.90
2018-04-25T01:37:35.744Z,99.90
2018-04-25T01:40:06.640Z,99.90
2018-04-25T01:46:05.319Z,99.90
2018-04-25T01:52:00.659Z,99.90
2018-04-25T01:54:40.607Z,99.90
2018-04-25T01:57:20.659Z,99.90
2018-04-25T02:00:00.758Z,99.90
2018-04-25T02:02:29.239Z,99.90
2018-04-25T02:04:57.453Z,99.90
2018-04-25T02:07:25.648Z,99.90
2018-04-25T02:09:53.915Z,99.90
2018-04-25T02:12:22.959Z,99.90
2018-04-25T02:14:51.995Z,99.90
2018-04-25T02:17:21.494Z,99.90
2018-04-25T02:19:49.735Z,99.90
2018-04-25T02:22:18.698Z,99.90
2018-04-25T02:24:46.991Z,99.90
2018-04-25T02:27:16.034Z,99.90
2018-04-25T02:29:44.227Z,99.90
2018-04-25T02:32:12.501Z,99.90
2018-04-25T02:34:40.768Z,99.90
2018-04-25T02:37:09.036Z,99.90
2018-04-25T02:39:38.645Z,99.90
2018-04-25T02:42:06.839Z,99.90
2018-04-25T02:44:35.138Z,99.90
2018-04-25T02:47:03.381Z,99.90
2018-04-25T02:49:31.649Z,99.90
2018-04-25T02:51:59.848Z,99.90
2018-04-25T02:54:28.051Z,99.90
2018-04-25T02:56:57.015Z,99.90
2018-04-25T02:59:25.218Z,99.90
2018-04-25T03:01:54.367Z,99.90
2018-04-25T03:04:22.630Z,99.90
2018-04-25T03:06:50.851Z,99.90
2018-04-25T03:09:19.155Z,99.90
2018-04-25T03:11:48.156Z,99.90
2018-04-25T03:14:16.338Z,99.90
2018-04-25T03:16:44.646Z,99.90
2018-04-25T03:19:12.898Z,99.90
2018-04-25T03:21:41.424Z,99.90
2018-04-25T03:24:09.654Z,99.90
2018-04-25T03:26:37.865Z,99.90
2018-04-25T03:29:06.120Z,99.90
2018-04-25T03:31:34.357Z,99.90
2018-04-25T03:34:03.355Z,99.90
2018-04-25T03:36:31.575Z,99.90
2018-04-25T03:38:59.972Z,99.90
2018-04-25T03:41:28.294Z,99.90
2018-04-25T03:43:56.623Z,99.90
2018-04-25T03:46:24.842Z,99.90
2018-04-25T03:48:53.043Z,99.90
2018-04-25T03:51:21.248Z,99.90
2018-04-25T03:53:49.599Z,99.90
2018-04-25T03:56:17.842Z,99.90
2018-04-25T03:58:46.807Z,99.90
2018-04-25T04:01:15.127Z,99.90
2018-04-25T04:03:43.478Z,99.90
2018-04-25T04:06:11.805Z,99.90
2018-04-25T04:08:40.043Z,99.90
2018-04-25T04:11:08.248Z,99.90
2018-04-25T04:13:36.505Z,99.90
2018-04-25T04:16:04.726Z,99.90
2018-04-25T04:18:32.999Z,99.90
2018-04-25T04:21:01.336Z,99.90
2018-04-25T04:23:32.543Z,99.90
2018-04-25T04:26:01.237Z,99.90
2018-04-25T04:28:29.630Z,99.90
2018-04-25T04:30:57.848Z,99.90
2018-04-25T04:33:26.047Z,99.90
2018-04-25T04:35:54.259Z,99.90
2018-04-25T04:38:23.233Z,99.90
2018-04-25T04:40:52.363Z,99.90
2018-04-25T04:43:20.633Z,99.90
2018-04-25T04:45:48.937Z,99.90
2018-04-25T04:48:17.191Z,99.90
2018-04-25T04:50:46.267Z,99.90
2018-04-25T04:53:15.427Z,99.90
2018-04-25T04:55:43.779Z,99.90
2018-04-25T04:58:11.979Z,99.90
2018-04-25T05:00:40.263Z,99.90
2018-04-25T05:03:08.502Z,99.90
2018-04-25T05:05:36.705Z,99.90
2018-04-25T05:08:05.012Z,99.90
2018-04-25T05:10:34.048Z,99.90
2018-04-25T05:13:02.436Z,99.90
2018-04-25T05:15:30.694Z,99.90
2018-04-25T05:17:58.930Z,99.90
2018-04-25T05:20:27.162Z,99.90
2018-04-25T05:22:55.467Z,99.90
2018-04-25T05:25:23.643Z,99.90
2018-04-25T05:27:52.128Z,99.90
2018-04-25T05:30:20.363Z,99.90
2018-04-25T05:32:48.798Z,99.90
2018-04-25T05:35:17.811Z,99.90
2018-04-25T05:37:46.136Z,99.90
2018-04-25T05:40:14.323Z,99.90
2018-04-25T05:42:42.519Z,99.90
2018-04-25T05:45:11.543Z,99.90
2018-04-25T05:47:39.829Z,99.90
2018-04-25T05:50:08.028Z,99.90
2018-04-25T05:52:36.272Z,99.90
2018-04-25T05:55:04.476Z,99.90
2018-04-25T05:57:32.682Z,99.90
2018-04-25T06:00:01.027Z,99.90
2018-04-25T06:02:29.271Z,99.90
2018-04-25T06:04:57.582Z,99.90
2018-04-25T06:07:25.815Z,99.90
2018-04-25T06:09:54.210Z,99.90
2018-04-25T06:12:22.442Z,99.90
2018-04-25T06:14:50.695Z,99.90
2018-04-25T06:17:18.899Z,99.90
2018-04-25T06:19:47.948Z,99.90
2018-04-25T06:22:16.268Z,99.90
2018-04-25T06:24:44.499Z,99.90
2018-04-25T06:27:12.820Z,99.90
2018-04-25T06:29:41.119Z,99.90
2018-04-25T06:32:09.323Z,99.90
2018-04-25T06:34:37.527Z,99.90
2018-04-25T06:37:05.870Z,99.90
2018-04-25T06:39:34.312Z,99.90
2018-04-25T06:42:02.438Z,99.90
2018-04-25T06:44:30.755Z,99.90
2018-04-25T06:46:59.795Z,99.90
2018-04-25T06:49:28.041Z,99.90
2018-04-25T06:51:57.070Z,99.90
2018-04-25T06:54:25.355Z,99.90
2018-04-25T06:56:53.616Z,99.90
2018-04-25T06:59:21.892Z,99.90
2018-04-25T07:01:50.139Z,99.40
2018-04-25T07:04:19.109Z,99.30
2018-04-25T07:06:47.419Z,99.30
2018-04-25T07:09:15.659Z,98.20
2018-04-25T07:11:44.015Z,98.00
2018-04-25T07:14:12.265Z,97.60
2018-04-25T07:16:40.459Z,97.40
2018-04-25T07:19:08.759Z,96.60
2018-04-25T07:21:37.011Z,97.00
2018-04-25T07:24:05.288Z,95.30
2018-04-25T07:26:33.627Z,94.10
2018-04-25T07:29:01.826Z,93.00
2018-04-25T07:31:30.828Z,90.80
2018-04-25T07:33:59.019Z,90.70
2018-04-25T07:36:27.273Z,91.70
2018-04-25T07:38:55.610Z,92.20
2018-04-25T07:41:25.391Z,86.60
2018-04-25T07:43:53.609Z,86.60
2018-04-25T07:46:21.860Z,81.50
2018-04-25T07:48:50.103Z,80.80
2018-04-25T07:51:18.310Z,77.00
2018-04-25T07:53:46.531Z,75.30
2018-04-25T07:56:14.723Z,73.20
2018-04-25T07:58:42.913Z,74.10
2018-04-25T08:01:11.223Z,70.60
2018-04-25T08:03:39.419Z,71.40
2018-04-25T08:06:07.614Z,69.00
2018-04-25T08:08:35.883Z,73.10
2018-04-25T08:11:04.072Z,75.10
2018-04-25T08:13:44.128Z,73.80
2018-04-25T08:16:24.131Z,73.40
2018-04-25T08:19:05.043Z,69.40
2018-04-25T08:21:40.945Z,69.20
2018-04-25T08:24:09.248Z,69.00
2018-04-25T08:26:38.215Z,70.30
2018-04-25T08:29:06.490Z,70.20
2018-04-25T08:31:34.791Z,67.20
2018-04-25T08:34:03.739Z,69.30
2018-04-25T08:36:31.933Z,69.20
2018-04-25T08:39:00.154Z,72.00
2018-04-25T08:41:28.345Z,70.30
2018-04-25T08:43:56.571Z,67.60
2018-04-25T08:46:25.601Z,71.30
2018-04-25T08:48:53.844Z,71.40
2018-04-25T08:51:22.871Z,73.80
2018-04-25T08:53:51.095Z,73.80
2018-04-25T08:56:19.331Z,76.60
2018-04-25T08:58:47.561Z,77.20
2018-04-25T09:01:16.591Z,78.80
2018-04-25T09:03:44.839Z,78.90
2018-04-25T09:06:13.823Z,80.70
2018-04-25T09:08:44.128Z,81.40
2018-04-25T09:11:12.331Z,81.30
2018-04-25T09:13:41.383Z,80.90
2018-04-25T09:16:09.795Z,80.80
2018-04-25T09:18:38.751Z,80.90
2018-04-25T09:21:06.943Z,80.90
2018-04-25T09:23:35.142Z,83.60
2018-04-25T09:26:04.123Z,82.30
2018-04-25T09:28:32.315Z,82.10
2018-04-25T09:31:02.691Z,81.10
2018-04-25T09:33:30.938Z,81.20
2018-04-25T09:35:59.175Z,80.70
2018-04-25T09:38:27.415Z,81.90
2018-04-25T09:40:55.697Z,80.80
2018-04-25T09:43:23.898Z,82.20
2018-04-25T09:45:52.139Z,80.80
2018-04-25T09:48:21.052Z,79.20
2018-04-25T09:50:49.243Z,79.10
2018-04-25T09:55:39.284Z,78.50
2018-04-25T09:58:07.568Z,79.20
2018-04-25T10:00:41.287Z,76.40
2018-04-25T10:03:15.139Z,76.40
2018-04-25T10:05:43.416Z,75.90
2018-04-25T10:08:12.382Z,74.70
2018-04-25T10:10:40.597Z,74.60
2018-04-25T10:13:09.655Z,75.60
2018-04-25T10:15:37.855Z,75.50
2018-04-25T10:18:06.819Z,77.50
2018-04-25T10:20:35.048Z,77.30
2018-04-25T10:23:03.239Z,74.20
2018-04-25T10:25:31.455Z,73.80
2018-04-25T10:27:59.664Z,70.80
2018-04-25T10:30:28.640Z,71.20
2018-04-25T10:32:57.600Z,72.40
2018-04-25T10:35:25.824Z,72.50
2018-04-25T10:37:54.795Z,74.20
2018-04-25T10:40:23.787Z,74.80
2018-04-25T10:42:51.967Z,74.70
2018-04-25T10:45:21.091Z,75.40
2018-04-25T10:47:49.390Z,75.40
2018-04-25T10:50:17.867Z,76.10
2018-04-25T10:52:46.085Z,79.30
2018-04-25T10:55:14.301Z,79.20
2018-04-25T10:57:42.513Z,80.10
2018-04-25T11:00:10.788Z,81.40
2018-04-25T11:02:39.131Z,82.00
2018-04-25T11:05:08.138Z,84.00
2018-04-25T11:07:36.406Z,84.00
2018-04-25T11:10:04.624Z,85.00
2018-04-25T11:12:32.831Z,84.90
2018-04-25T11:15:01.812Z,85.70
2018-04-25T11:17:30.774Z,86.30
2018-04-25T11:20:00.245Z,86.40
2018-04-25T11:22:28.422Z,87.30
2018-04-25T11:24:56.619Z,84.50
2018-04-25T11:27:24.870Z,85.20
2018-04-25T11:29:53.070Z,83.40
2018-04-25T11:32:21.262Z,83.10
2018-04-25T11:34:49.801Z,84.30
2018-04-25T11:37:18.101Z,83.00
2018-04-25T11:39:46.377Z,82.30
2018-04-25T11:42:14.701Z,81.60
2018-04-25T11:44:43.667Z,80.90
2018-04-25T11:47:12.055Z,80.70
2018-04-25T11:49:40.230Z,80.10
2018-04-25T11:52:08.422Z,80.30
2018-04-25T11:54:38.631Z,82.60
2018-04-25T11:57:06.976Z,82.60
2018-04-25T11:59:35.200Z,82.00
2018-04-25T12:02:03.372Z,81.40
2018-04-25T12:04:32.431Z,82.00
2018-04-25T12:07:00.623Z,82.00
2018-04-25T12:09:28.851Z,83.40
2018-04-25T12:11:57.063Z,83.80
2018-04-25T12:14:25.790Z,85.70
2018-04-25T12:16:54.326Z,86.90
2018-04-25T12:19:22.805Z,84.70
2018-04-25T12:21:50.991Z,84.30
2018-04-25T12:24:19.270Z,83.00
2018-04-25T12:26:48.182Z,83.60
2018-04-25T12:29:17.150Z,82.60
2018-04-25T12:31:45.378Z,82.60
2018-04-25T12:34:13.653Z,83.30
2018-04-25T12:36:41.863Z,81.40
2018-04-25T12:39:10.171Z,80.60
2018-04-25T12:41:38.446Z,80.60
2018-04-25T12:44:06.623Z,82.10
2018-04-25T12:46:35.579Z,81.10
2018-04-25T12:49:03.843Z,81.00
2018-04-25T12:51:32.023Z,81.00
2018-04-25T12:54:00.400Z,81.50
2018-04-25T12:56:28.591Z,78.10
2018-04-25T12:58:56.791Z,79.80
2018-04-25T13:01:24.971Z,78.20
2018-04-25T13:03:53.954Z,81.00
2018-04-25T13:06:22.292Z,80.90
2018-04-25T13:08:50.495Z,83.20
2018-04-25T13:11:18.817Z,78.10
2018-04-25T13:13:47.191Z,74.70
2018-04-25T13:16:15.492Z,73.20
2018-04-25T13:18:43.703Z,71.00
2018-04-25T13:21:12.070Z,67.20
2018-04-25T13:23:40.323Z,65.60
2018-04-25T13:26:08.786Z,63.70
2018-04-25T13:28:36.980Z,61.30
2018-04-25T13:31:05.228Z,63.60
2018-04-25T13:33:33.546Z,59.40
2018-04-25T13:36:01.830Z,60.60
2018-04-25T13:38:30.019Z,63.30
2018-04-25T13:40:58.356Z,63.70
2018-04-25T13:43:26.543Z,65.10
2018-04-25T13:45:54.733Z,61.00
2018-04-25T13:48:22.935Z,62.50
2018-04-25T13:50:51.892Z,67.70
2018-04-25T13:53:20.079Z,67.60
2018-04-25T13:55:48.475Z,69.70
2018-04-25T13:58:16.675Z,71.10
2018-04-25T14:00:45.700Z,71.90
2018-04-25T14:03:13.999Z,71.90
2018-04-25T14:05:42.222Z,71.10
2018-04-25T14:08:10.417Z,69.30
2018-04-25T14:10:38.627Z,68.90
2018-04-25T14:13:07.689Z,69.90
2018-04-25T14:15:35.866Z,72.00
2018-04-25T14:18:04.218Z,72.60
2018-04-25T14:20:33.175Z,77.60
2018-04-25T14:23:01.371Z,77.50
2018-04-25T14:25:30.503Z,78.50
2018-04-25T14:27:58.703Z,78.40
2018-04-25T14:30:27.071Z,80.70
2018-04-25T14:32:55.312Z,77.70
2018-04-25T14:35:23.535Z,71.20
2018-04-25T14:37:51.777Z,66.80
2018-04-25T14:40:20.170Z,64.40
2018-04-25T14:42:48.419Z,59.90
2018-04-25T14:45:17.387Z,61.90
2018-04-25T14:47:45.831Z,61.70
2018-04-25T14:50:14.087Z,64.60
2018-04-25T14:52:42.309Z,68.00
2018-04-25T14:55:10.533Z,71.50
2018-04-25T14:57:38.753Z,72.40
2018-04-25T15:00:06.964Z,72.50
2018-04-25T15:02:38.388Z,76.10
2018-04-25T15:05:06.588Z,76.10
2018-04-25T15:07:35.548Z,79.00
2018-04-25T15:10:03.848Z,79.00
2018-04-25T15:12:32.819Z,78.90
2018-04-25T15:15:01.194Z,78.90
2018-04-25T15:17:29.521Z,81.50
2018-04-25T15:19:58.568Z,82.90
2018-04-25T15:22:26.732Z,82.90
2018-04-25T15:24:54.948Z,79.30
2018-04-25T15:27:24.003Z,78.40
2018-04-25T15:29:52.339Z,78.40
2018-04-25T15:32:20.614Z,78.80
2018-04-25T15:34:48.795Z,79.00
2018-04-25T15:37:16.994Z,79.10
2018-04-25T15:39:45.436Z,80.10
2018-04-25T15:42:13.852Z,80.20
2018-04-25T15:44:42.049Z,79.40
2018-04-25T15:47:10.308Z,78.70
2018-04-25T15:49:38.555Z,77.90
2018-04-25T15:52:06.831Z,76.50
2018-04-25T15:54:35.193Z,76.30
2018-04-25T15:57:04.143Z,77.70
2018-04-25T15:59:32.352Z,77.70
2018-04-25T16:02:01.392Z,77.20
2018-04-25T16:04:30.555Z,78.30
2018-04-25T16:06:58.776Z,78.30
2018-04-25T16:09:27.163Z,78.90
2018-04-25T16:11:55.362Z,79.30
2018-04-25T16:14:23.609Z,79.40
2018-04-25T16:16:52.049Z,78.70
2018-04-25T16:19:20.331Z,78.80
2018-04-25T16:21:48.553Z,77.20
2018-04-25T16:24:16.815Z,77.70
2018-04-25T16:26:44.995Z,77.30
2018-04-25T16:29:13.179Z,77.10
2018-04-25T16:31:41.449Z,78.40
2018-04-25T16:34:09.645Z,80.10
2018-04-25T16:36:38.665Z,81.60
2018-04-25T16:39:06.867Z,81.60
2018-04-25T16:41:35.055Z,81.60
2018-04-25T16:44:03.288Z,81.90
2018-04-25T16:46:31.520Z,82.40
2018-04-25T16:48:59.756Z,82.50
2018-04-25T16:51:27.958Z,83.40
2018-04-25T16:53:56.139Z,83.30
2018-04-25T16:56:25.121Z,82.80
2018-04-25T16:58:53.406Z,82.60
2018-04-25T17:01:21.620Z,82.80
2018-04-25T17:03:50.598Z,83.80
2018-04-25T17:06:18.836Z,83.80
2018-04-25T17:08:47.079Z,83.40
2018-04-25T17:11:15.367Z,84.70
2018-04-25T17:13:43.632Z,90.40
2018-04-25T17:16:11.822Z,92.40
2018-04-25T17:18:40.521Z,93.40
2018-04-25T17:21:08.703Z,94.10
2018-04-25T17:23:36.891Z,94.80
2018-04-25T17:26:05.246Z,95.10
2018-04-25T17:28:33.449Z,95.70
2018-04-25T17:31:01.635Z,96.30
2018-04-25T17:33:29.854Z,97.00
2018-04-25T17:35:58.047Z,97.00
2018-04-25T17:38:26.271Z,97.40
2018-04-25T17:40:55.291Z,98.20
2018-04-25T17:43:23.487Z,98.20
2018-04-25T17:45:51.736Z,98.10
2018-04-25T17:48:20.031Z,98.60
2018-04-25T17:50:48.219Z,98.60
2018-04-25T17:53:16.443Z,98.70
2018-04-25T17:55:45.638Z,99.50
2018-04-25T17:58:14.595Z,99.70
2018-04-25T18:00:42.792Z,99.40
2018-04-25T18:03:11.249Z,99.40
2018-04-25T18:05:40.136Z,99.60
2018-04-25T18:08:08.351Z,99.70
2018-04-25T18:10:37.328Z,99.90
2018-04-25T18:13:05.544Z,99.90
2018-04-25T18:15:33.738Z,99.90
2018-04-25T18:18:02.088Z,99.90
2018-04-25T18:20:30.345Z,99.90
2018-04-25T18:22:58.533Z,99.90
2018-04-25T18:25:27.562Z,99.90
2018-04-25T18:27:55.792Z,99.90
2018-04-25T18:30:23.989Z,99.90
2018-04-25T18:35:33.687Z,99.90
2018-04-25T18:38:01.882Z,99.90
2018-04-25T18:40:30.072Z,99.90
2018-04-25T18:42:58.300Z,99.90
2018-04-25T18:45:26.495Z,99.90
2018-04-25T18:47:54.702Z,99.90
2018-04-25T18:50:23.087Z,99.90
2018-04-25T18:52:51.683Z,99.90
2018-04-25T18:55:20.727Z,99.90
2018-04-25T18:57:49.080Z,99.90
2018-04-25T19:00:17.258Z,99.90
2018-04-25T19:02:45.538Z,99.90
2018-04-25T19:05:13.763Z,99.90
2018-04-25T19:07:41.959Z,99.90
2018-04-25T19:10:10.951Z,99.90
2018-04-25T19:12:39.952Z,99.90
2018-04-25T19:15:08.397Z,99.90
2018-04-25T19:17:37.368Z,99.90
2018-04-25T19:20:08.201Z,99.90
2018-04-25T19:22:36.957Z,99.90
2018-04-25T19:25:05.187Z,99.90
2018-04-25T19:27:33.460Z,99.90
2018-04-25T19:30:03.212Z,99.90
2018-04-25T19:32:32.330Z,99.90
2018-04-25T19:35:00.564Z,99.90
2018-04-25T19:37:29.541Z,99.90
2018-04-25T19:39:58.255Z,99.90
2018-04-25T19:42:27.347Z,99.90
2018-04-25T19:44:56.311Z,99.90
2018-04-25T19:47:24.526Z,99.90
2018-04-25T19:49:53.020Z,99.90
2018-04-25T19:52:21.251Z,99.90
2018-04-25T19:54:50.295Z,99.90
2018-04-25T19:57:18.591Z,99.90
2018-04-25T19:59:46.917Z,99.90
2018-04-25T20:02:15.995Z,99.90
2018-04-25T20:04:46.667Z,99.90
2018-04-25T20:07:14.872Z,99.90
2018-04-25T20:09:43.082Z,99.90
2018-04-25T20:12:11.423Z,99.90
2018-04-25T20:14:39.619Z,99.90
2018-04-25T20:17:08.590Z,99.90
2018-04-25T20:19:36.807Z,99.90
2018-04-25T20:22:05.773Z,99.90
2018-04-25T20:24:34.058Z,99.90
2018-04-25T20:27:03.799Z,99.90
2018-04-25T20:29:31.989Z,99.90
2018-04-25T20:32:00.188Z,99.90
2018-04-25T20:34:28.406Z,99.90
2018-04-25T20:36:56.595Z,99.90
2018-04-25T20:39:26.586Z,99.90
2018-04-25T20:41:54.956Z,99.90
2018-04-25T20:44:23.199Z,99.90
2018-04-25T20:46:51.455Z,99.90
2018-04-25T20:49:19.935Z,99.90
2018-04-25T20:51:48.347Z,99.90
2018-04-25T20:54:17.782Z,99.90
2018-04-25T20:56:45.987Z,99.90
2018-04-25T20:59:14.991Z,99.90
2018-04-25T21:01:43.926Z,99.90
2018-04-25T21:04:12.224Z,99.90
2018-04-25T21:06:40.491Z,99.90
2018-04-25T21:09:08.804Z,99.90
2018-04-25T21:11:37.050Z,99.90
2018-04-25T21:14:05.221Z,99.90
2018-04-25T21:16:33.412Z,99.90
2018-04-25T21:19:01.792Z,99.90
2018-04-25T21:21:30.031Z,99.90
2018-04-25T21:23:58.263Z,99.90
2018-04-25T21:26:28.027Z,99.90
2018-04-25T21:28:56.214Z,99.90
2018-04-25T21:31:24.477Z,99.90
2018-04-25T21:33:52.726Z,99.90
2018-04-25T21:36:21.058Z,99.90
2018-04-25T21:38:49.254Z,99.90
2018-04-25T21:41:17.515Z,99.90
2018-04-25T21:43:45.979Z,99.90
2018-04-25T21:46:14.193Z,99.90
2018-04-25T21:48:43.219Z,99.90
2018-04-25T21:51:11.567Z,99.90
2018-04-25T21:53:39.799Z,99.90
2018-04-25T21:56:08.312Z,99.90
2018-04-25T21:58:36.504Z,99.90
2018-04-25T22:01:05.475Z,99.90
2018-04-25T22:03:33.747Z,99.90
2018-04-25T22:06:01.939Z,99.90
2018-04-25T22:08:31.092Z,99.90
2018-04-25T22:10:59.373Z,99.90
2018-04-25T22:13:28.436Z,99.90
2018-04-25T22:15:56.628Z,99.90
2018-04-25T22:18:24.931Z,99.90
2018-04-25T22:20:53.142Z,99.90
2018-04-25T22:23:22.203Z,99.90
2018-04-25T22:25:50.415Z,99.90
2018-04-25T22:28:19.835Z,99.90
2018-04-25T22:30:48.028Z,99.90
2018-04-25T22:33:16.243Z,99.90
2018-04-25T22:35:44.440Z,99.90
2018-04-25T22:38:13.675Z,99.90
2018-04-25T22:40:42.156Z,99.90
2018-04-25T22:43:10.487Z,99.90
2018-04-25T22:45:39.527Z,99.90
2018-04-25T22:48:07.925Z,99.90
2018-04-25T22:50:36.117Z,99.90
2018-04-25T22:53:04.368Z,99.90
2018-04-25T22:55:32.688Z,99.90
2018-04-25T22:58:00.892Z,99.90
2018-04-25T23:00:29.163Z,99.90
2018-04-25T23:02:58.266Z,99.90
2018-04-25T23:05:26.474Z,99.90
2018-04-25T23:07:55.419Z,99.90
2018-04-25T23:10:23.736Z,99.90
2018-04-25T23:12:52.101Z,99.90
2018-04-25T23:15:21.136Z,99.90
2018-04-25T23:17:49.334Z,99.90
2018-04-25T23:20:17.651Z,99.90
2018-04-25T23:22:45.840Z,99.90
2018-04-25T23:25:14.074Z,99.90
2018-04-25T23:27:43.085Z,99.90
2018-04-25T23:30:11.347Z,99.90
2018-04-25T23:32:40.411Z,99.90
2018-04-25T23:35:08.616Z,99.90
2018-04-25T23:37:37.627Z,99.90
2018-04-25T23:40:05.932Z,99.90
2018-04-25T23:42:34.227Z,99.90
2018-04-25T23:45:02.625Z,99.90
2018-04-25T23:47:32.351Z,99.90
2018-04-25T23:50:01.375Z,99.90
2018-04-25T23:52:30.317Z,99.90
2018-04-25T23:54:58.558Z,99.90
2018-04-25T23:57:26.812Z,99.90
2018-04-25T23:59:55.012Z,99.90
